Time;durP1;ratioP1;P1;durP2;ratioP2;P2;SDS_P1;SDS_P2;PMS_P1;PMS_P2;Temp;Humidity;BMP_temperature;BMP_pressure;BME280_temperature;BME280_humidity;BME280_pressure;Samples;Min_cycle;Max_cycle;Signal;HPM_P1;HPM_P2
2021/05/14 00:01:30;;;;;;;1.40;1.30;;;11.10;77.60;;;;;;5050935;28;21024;-78
2021/05/14 00:03:57;;;;;;;1.80;1.37;;;11.10;77.60;;;;;;5050912;28;20637;-79
2021/05/14 00:06:23;;;;;;;1.13;1.03;;;11.00;76.80;;;;;;5051174;28;20637;-79
2021/05/14 00:08:50;;;;;;;1.23;1.10;;;11.00;77.10;;;;;;5050699;28;21086;-79
2021/05/14 00:11:17;;;;;;;1.30;1.20;;;10.90;76.60;;;;;;5044086;28;20673;-79
2021/05/14 00:13:43;;;;;;;1.53;1.43;;;11.00;77.90;;;;;;5051101;28;20602;-79
2021/05/14 00:16:09;;;;;;;1.27;1.17;;;10.90;76.20;;;;;;5051078;28;20618;-79
2021/05/14 00:18:36;;;;;;;1.50;1.40;;;11.00;77.00;;;;;;5050183;28;21032;-79
2021/05/14 00:21:03;;;;;;;1.30;1.20;;;10.90;76.00;;;;;;5048489;28;20619;-79
2021/05/14 00:23:29;;;;;;;1.43;1.33;;;11.00;77.60;;;;;;5045858;28;21166;-79
2021/05/14 00:25:56;;;;;;;1.10;1.10;;;11.10;76.80;;;;;;5051063;28;21074;-79
2021/05/14 00:28:23;;;;;;;1.47;1.37;;;11.20;77.70;;;;;;5050888;28;20654;-79
2021/05/14 00:30:49;;;;;;;2.33;1.60;;;11.10;77.40;;;;;;5049505;28;20673;-79
2021/05/14 00:33:16;;;;;;;2.27;1.80;;;11.10;78.10;;;;;;5049948;28;20610;-79
2021/05/14 00:35:42;;;;;;;1.53;1.43;;;11.10;78.50;;;;;;5049939;28;20616;-79
2021/05/14 00:38:08;;;;;;;1.40;1.10;;;10.90;76.10;;;;;;5050618;28;21206;-79
2021/05/14 00:40:35;;;;;;;3.40;1.37;;;11.20;77.10;;;;;;5050126;28;20610;-79
2021/05/14 00:43:01;;;;;;;1.53;1.43;;;10.90;76.70;;;;;;5050849;28;21083;-80
2021/05/14 00:45:28;;;;;;;2.00;1.70;;;10.90;76.80;;;;;;5050620;28;20664;-80
2021/05/14 00:47:55;;;;;;;1.50;1.20;;;10.80;76.20;;;;;;5050120;28;21207;-79
2021/05/14 00:50:21;;;;;;;1.60;1.50;;;10.80;77.20;;;;;;5049671;28;20708;-80
2021/05/14 00:52:48;;;;;;;1.20;1.10;;;10.70;77.70;;;;;;5050938;28;20626;-80
2021/05/14 00:55:15;;;;;;;1.23;1.13;;;10.70;78.30;;;;;;5050526;28;20653;-80
2021/05/14 00:57:42;;;;;;;2.00;1.33;;;10.60;78.10;;;;;;5050617;28;20619;-79
2021/05/14 01:00:10;;;;;;;1.30;1.30;;;10.70;79.10;;;;;;5049852;28;20627;-79
2021/05/14 01:02:37;;;;;;;1.80;1.70;;;10.70;78.30;;;;;;5049381;28;20622;-79
2021/05/14 01:05:06;;;;;;;1.17;1.10;;;10.80;78.70;;;;;;5049856;28;20639;-80
2021/05/14 01:07:36;;;;;;;1.40;1.30;;;10.80;77.10;;;;;;5050825;28;20204;-79
2021/05/14 01:10:07;;;;;;;1.90;1.17;;;10.70;78.10;;;;;;5048947;28;20701;-80
2021/05/14 01:12:35;;;;;;;1.47;1.00;;;10.70;77.20;;;;;;5049862;28;20725;-80
2021/05/14 01:15:03;;;;;;;1.60;1.50;;;10.60;77.40;;;;;;5049609;28;21140;-79
2021/05/14 01:17:33;;;;;;;1.40;1.23;;;10.50;77.80;;;;;;5043468;28;21042;-79
2021/05/14 01:20:03;;;;;;;2.03;1.33;;;10.60;79.30;;;;;;5043569;28;20643;-79
2021/05/14 01:22:33;;;;;;;1.53;1.23;;;10.50;78.90;;;;;;5049825;28;20688;-79
2021/05/14 01:25:01;;;;;;;2.17;1.60;;;10.60;79.10;;;;;;5049691;28;20733;-80
2021/05/14 01:27:31;;;;;;;1.50;1.40;;;10.70;79.30;;;;;;5048955;28;20630;-79
2021/05/14 01:30:01;;;;;;;1.30;1.20;;;10.60;79.40;;;;;;5046373;28;20660;-79
2021/05/14 01:32:29;;;;;;;1.35;1.25;;;10.70;79.50;;;;;;5042793;28;20698;-80
2021/05/14 01:34:58;;;;;;;1.10;1.00;;;10.80;80.30;;;;;;5048061;28;20273;-80
2021/05/14 01:37:25;;;;;;;3.25;1.60;;;10.80;80.60;;;;;;5049666;28;20630;-80
2021/05/14 01:40:01;;;;;;;1.53;1.43;;;10.90;80.20;;;;;;5048216;28;20567;-80
2021/05/14 01:42:29;;;;;;;1.57;1.47;;;10.80;79.20;;;;;;5048677;28;20618;-80
2021/05/14 01:44:56;;;;;;;3.23;2.07;;;10.70;79.10;;;;;;5049663;28;21011;-81
2021/05/14 01:47:23;;;;;;;1.30;1.20;;;10.80;79.20;;;;;;5050016;28;20630;-80
2021/05/14 01:49:51;;;;;;;2.10;1.27;;;10.70;80.50;;;;;;5048996;28;21053;-80
2021/05/14 01:52:18;;;;;;;1.20;1.20;;;10.70;79.60;;;;;;5050560;28;20625;-80
2021/05/14 01:54:46;;;;;;;1.75;1.00;;;10.60;80.20;;;;;;5049424;28;20638;-80
2021/05/14 01:57:15;;;;;;;1.70;1.57;;;10.60;80.30;;;;;;5049168;28;20543;-80
2021/05/14 01:59:44;;;;;;;1.80;1.70;;;10.60;79.40;;;;;;5049713;28;20979;-80
2021/05/14 02:02:18;;;;;;;2.37;1.50;;;10.60;79.70;;;;;;5049793;28;21260;-80
2021/05/14 02:04:46;;;;;;;1.70;1.60;;;10.70;79.40;;;;;;5049495;28;20631;-80
2021/05/14 02:07:14;;;;;;;1.60;1.50;;;10.50;79.00;;;;;;5049671;28;20623;-80
2021/05/14 02:09:41;;;;;;;1.50;1.40;;;10.50;80.10;;;;;;5049088;28;20662;-80
2021/05/14 02:12:10;;;;;;;1.60;1.50;;;10.30;81.10;;;;;;5049434;28;20741;-80
2021/05/14 02:14:39;;;;;;;2.43;1.70;;;10.30;80.50;;;;;;5050241;28;20571;-80
2021/05/14 02:17:08;;;;;;;2.10;1.90;;;10.20;80.80;;;;;;5049019;28;20635;-80
2021/05/14 02:19:36;;;;;;;1.80;1.70;;;10.20;80.60;;;;;;5047763;28;20669;-80
2021/05/14 02:22:04;;;;;;;2.30;1.50;;;10.20;80.10;;;;;;5049724;28;21225;-80
2021/05/14 02:24:30;;;;;;;1.48;1.38;;;10.30;80.20;;;;;;5049948;28;21252;-80
2021/05/14 02:26:57;;;;;;;1.25;1.20;;;10.30;80.40;;;;;;5049180;28;20203;-80
2021/05/14 02:29:23;;;;;;;1.90;1.80;;;10.20;80.80;;;;;;5049168;28;20711;-80
2021/05/14 02:31:51;;;;;;;4.18;2.22;;;10.20;80.50;;;;;;5048620;28;21201;-80
2021/05/14 02:34:17;;;;;;;1.77;1.50;;;10.20;80.60;;;;;;5047213;28;20188;-81
2021/05/14 02:36:44;;;;;;;1.63;1.38;;;10.30;81.10;;;;;;5049483;28;20192;-80
2021/05/14 02:39:10;;;;;;;1.45;1.35;;;10.30;81.40;;;;;;5048876;28;20231;-80
2021/05/14 02:41:38;;;;;;;1.50;1.40;;;10.10;81.40;;;;;;5049287;28;20192;-79
2021/05/14 02:44:05;;;;;;;2.10;1.70;;;10.10;82.40;;;;;;5042717;28;20227;-79
2021/05/14 02:46:32;;;;;;;2.85;1.98;;;10.30;81.30;;;;;;5049040;28;20554;-79
2021/05/14 02:48:59;;;;;;;1.70;1.52;;;10.30;81.10;;;;;;5048517;28;20211;-80
2021/05/14 02:51:26;;;;;;;2.73;2.20;;;10.30;80.50;;;;;;5049562;28;20188;-79
2021/05/14 02:53:52;;;;;;;2.08;1.98;;;10.30;81.40;;;;;;5050145;28;20649;-79
2021/05/14 02:56:18;;;;;;;3.65;2.47;;;10.20;80.60;;;;;;5053344;28;20625;-79
2021/05/14 02:58:45;;;;;;;2.05;1.95;;;10.20;81.30;;;;;;5052839;28;20192;-79
2021/05/14 03:01:11;;;;;;;1.98;1.88;;;10.10;81.20;;;;;;5052861;28;20546;-80
2021/05/14 03:03:38;;;;;;;2.15;1.95;;;10.10;81.10;;;;;;5053738;28;20231;-79
2021/05/14 03:06:05;;;;;;;1.73;1.63;;;10.10;81.50;;;;;;5053205;28;20215;-79
2021/05/14 03:08:34;;;;;;;1.90;1.80;;;10.10;81.10;;;;;;5052403;28;20222;-79
2021/05/14 03:11:01;;;;;;;2.17;2.08;;;10.20;81.20;;;;;;5053245;28;20227;-79
2021/05/14 03:13:28;;;;;;;3.05;2.10;;;10.10;80.70;;;;;;5052663;28;20206;-80
2021/05/14 03:15:55;;;;;;;2.70;2.28;;;10.10;81.60;;;;;;5052277;28;20380;-80
2021/05/14 03:18:22;;;;;;;2.30;2.20;;;10.30;81.30;;;;;;5053236;28;20196;-80
2021/05/14 03:20:48;;;;;;;3.00;2.80;;;10.20;80.50;;;;;;5052041;28;20208;-79
2021/05/14 03:23:15;;;;;;;2.67;2.47;;;10.20;80.60;;;;;;5052694;28;20601;-80
2021/05/14 03:25:42;;;;;;;2.67;2.30;;;10.20;80.60;;;;;;5053137;28;20224;-79
2021/05/14 03:28:09;;;;;;;5.03;1.98;;;10.10;80.50;;;;;;5052419;28;21010;-79
2021/05/14 03:30:35;;;;;;;1.80;1.70;;;10.00;81.30;;;;;;5051598;28;20406;-80
2021/05/14 03:33:02;;;;;;;2.22;2.13;;;10.00;82.20;;;;;;5053281;28;20203;-79
2021/05/14 03:35:28;;;;;;;2.30;1.85;;;9.90;83.00;;;;;;5051348;28;20558;-80
2021/05/14 03:37:55;;;;;;;1.85;1.75;;;10.00;82.00;;;;;;5052445;28;20275;-79
2021/05/14 03:40:33;;;;;;;2.00;1.90;;;9.90;82.40;;;;;;5052207;28;20208;-79
2021/05/14 03:43:00;;;;;;;1.98;1.88;;;9.90;82.50;;;;;;5052098;28;20677;-80
2021/05/14 03:45:27;;;;;;;2.35;2.15;;;9.90;82.30;;;;;;5052858;28;20243;-79
2021/05/14 03:47:54;;;;;;;2.60;2.40;;;9.80;82.70;;;;;;5052161;28;20964;-78
2021/05/14 03:50:21;;;;;;;2.20;2.00;;;9.70;83.20;;;;;;5051616;28;20354;-79
2021/05/14 03:52:47;;;;;;;2.45;2.25;;;9.60;82.90;;;;;;5045147;28;20571;-79
2021/05/14 03:55:14;;;;;;;3.25;3.05;;;9.60;83.00;;;;;;5052905;28;20591;-79
2021/05/14 03:57:41;;;;;;;2.75;2.55;;;9.40;84.10;;;;;;5051567;28;20231;-79
2021/05/14 04:00:09;;;;;;;3.30;2.80;;;9.10;84.50;;;;;;5051047;28;20200;-79
2021/05/14 04:02:35;;;;;;;2.75;2.50;;;9.10;85.70;;;;;;5052481;28;20314;-78
2021/05/14 04:05:01;;;;;;;2.53;2.33;;;9.10;85.20;;;;;;5051391;28;20215;-79
2021/05/14 04:07:28;;;;;;;2.88;2.67;;;8.90;85.70;;;;;;5051363;28;20646;-80
2021/05/14 04:10:04;;;;;;;4.68;3.30;;;9.00;86.40;;;;;;5050923;28;20227;-79
2021/05/14 04:15:16;;;;;;;2.72;2.53;;;8.90;86.00;;;;;;5051695;28;20215;-79
2021/05/14 04:17:42;;;;;;;2.45;2.35;;;9.10;85.60;;;;;;5051726;28;20624;-79
2021/05/14 04:20:08;;;;;;;2.55;2.35;;;9.10;85.50;;;;;;5050802;28;20637;-79
2021/05/14 04:22:35;;;;;;;2.40;1.90;;;9.10;86.40;;;;;;5051780;28;20211;-79
2021/05/14 04:25:01;;;;;;;2.17;2.00;;;8.90;86.30;;;;;;5051867;28;20204;-79
2021/05/14 04:27:28;;;;;;;4.10;2.13;;;8.90;86.80;;;;;;5051592;28;20188;-80
2021/05/14 04:29:54;;;;;;;2.00;1.80;;;9.00;86.90;;;;;;5051030;28;20252;-79
2021/05/14 04:32:21;;;;;;;2.28;2.05;;;9.20;86.60;;;;;;5051261;28;20559;-79
2021/05/14 04:34:48;;;;;;;2.40;2.20;;;9.20;86.80;;;;;;5050432;28;20200;-80
2021/05/14 04:37:14;;;;;;;3.08;1.90;;;9.40;86.10;;;;;;5051319;28;20227;-80
2021/05/14 04:39:42;;;;;;;2.90;2.50;;;9.40;85.60;;;;;;5051114;28;20197;-79
2021/05/14 04:42:08;;;;;;;2.78;2.00;;;9.50;85.40;;;;;;5051453;28;20198;-79
2021/05/14 04:44:35;;;;;;;2.60;2.40;;;9.50;85.40;;;;;;5051306;28;20236;-79
2021/05/14 04:47:01;;;;;;;2.10;1.95;;;9.50;85.80;;;;;;5051051;28;20226;-79
2021/05/14 04:49:28;;;;;;;2.15;1.95;;;9.60;85.80;;;;;;5049943;28;20223;-79
2021/05/14 04:51:55;;;;;;;2.15;2.05;;;9.80;85.50;;;;;;5051128;28;20196;-79
2021/05/14 04:54:22;;;;;;;2.10;2.00;;;9.80;85.70;;;;;;5051228;28;20230;-79
2021/05/14 04:56:48;;;;;;;1.98;1.80;;;10.00;83.00;;;;;;5051524;28;20295;-79
2021/05/14 04:59:15;;;;;;;1.95;1.60;;;10.00;82.60;;;;;;5050309;28;20204;-79
2021/05/14 05:01:41;;;;;;;2.50;1.70;;;10.10;82.80;;;;;;5050751;28;20207;-79
2021/05/14 05:04:08;;;;;;;3.58;1.80;;;10.30;82.10;;;;;;5043847;28;20258;-78
2021/05/14 05:06:35;;;;;;;3.65;1.80;;;10.40;81.30;;;;;;5051140;28;20188;-78
2021/05/14 05:09:02;;;;;;;2.20;2.10;;;10.40;80.70;;;;;;5050569;28;20204;-79
2021/05/14 05:11:29;;;;;;;1.73;1.52;;;10.60;81.60;;;;;;5050956;28;20249;-79
2021/05/14 05:13:55;;;;;;;2.65;1.85;;;10.70;81.20;;;;;;5050851;28;20576;-79
2021/05/14 05:16:21;;;;;;;1.35;1.25;;;10.80;81.20;;;;;;5050539;28;20192;-79
2021/05/14 05:18:48;;;;;;;1.83;1.70;;;10.90;80.30;;;;;;5049496;28;20267;-79
2021/05/14 05:21:14;;;;;;;2.42;1.58;;;11.00;79.50;;;;;;5051061;28;20195;-79
2021/05/14 05:23:41;;;;;;;1.70;1.60;;;11.00;79.10;;;;;;5050264;28;20559;-79
2021/05/14 05:26:08;;;;;;;1.52;1.42;;;11.10;79.40;;;;;;5050371;28;20237;-79
2021/05/14 05:28:34;;;;;;;2.05;1.70;;;11.10;80.10;;;;;;5049196;28;20262;-80
2021/05/14 05:31:00;;;;;;;1.97;1.83;;;11.20;79.30;;;;;;5049995;28;20228;-80
2021/05/14 05:33:27;;;;;;;1.60;1.50;;;11.20;79.20;;;;;;5049569;28;21225;-79
2021/05/14 05:35:54;;;;;;;2.30;2.10;;;11.30;79.90;;;;;;5049642;28;20650;-79
2021/05/14 05:38:23;;;;;;;1.53;1.37;;;11.30;79.00;;;;;;5049694;28;20735;-79
2021/05/14 05:40:51;;;;;;;6.83;2.20;;;11.40;79.80;;;;;;5048700;28;21040;-79
2021/05/14 05:43:18;;;;;;;2.67;1.67;;;11.40;79.30;;;;;;5049048;28;20661;-79
2021/05/14 05:45:45;;;;;;;1.67;1.50;;;11.50;79.70;;;;;;5048896;28;20622;-79
2021/05/14 05:48:11;;;;;;;1.53;1.43;;;11.70;79.10;;;;;;5048738;28;20721;-79
2021/05/14 05:50:38;;;;;;;1.90;1.50;;;11.80;79.00;;;;;;5049055;28;20704;-79
2021/05/14 05:53:05;;;;;;;4.20;1.60;;;11.90;78.30;;;;;;5049234;28;20619;-80
2021/05/14 05:55:31;;;;;;;3.27;1.40;;;11.80;78.20;;;;;;5050006;28;20611;-80
2021/05/14 05:58:05;;;;;;;1.37;1.27;;;11.80;78.40;;;;;;5049412;28;20979;-80
2021/05/14 06:00:32;;;;;;;2.05;1.50;;;11.70;78.90;;;;;;5048187;28;21114;-80
2021/05/14 06:02:58;;;;;;;1.50;1.40;;;11.40;79.30;;;;;;5050388;28;20219;-80
2021/05/14 06:05:25;;;;;;;1.00;1.00;;;11.40;79.50;;;;;;5049799;28;20641;-81
2021/05/14 06:07:51;;;;;;;1.43;1.17;;;11.50;80.20;;;;;;5049895;28;20658;-81
2021/05/14 06:10:18;;;;;;;1.93;1.23;;;11.50;79.30;;;;;;5049235;28;20650;-80
2021/05/14 06:12:44;;;;;;;1.17;1.07;;;11.50;79.00;;;;;;5049601;28;21171;-80
2021/05/14 06:15:12;;;;;;;1.10;1.00;;;11.50;79.20;;;;;;5049716;28;20626;-80
2021/05/14 06:17:40;;;;;;;1.17;1.07;;;11.50;79.90;;;;;;5045905;28;20681;-80
2021/05/14 06:20:09;;;;;;;1.70;1.50;;;11.50;79.60;;;;;;5045937;28;20618;-80
2021/05/14 06:22:35;;;;;;;2.13;1.20;;;11.60;80.00;;;;;;5049008;28;20632;-79
2021/05/14 06:25:03;;;;;;;3.63;1.30;;;11.80;80.40;;;;;;5044977;28;20859;-80
2021/05/14 06:27:30;;;;;;;3.00;1.20;;;11.80;79.00;;;;;;5047390;28;20214;-81
2021/05/14 06:29:57;;;;;;;0.80;0.80;;;11.70;79.60;;;;;;5044052;28;20673;-80
2021/05/14 06:32:24;;;;;;;2.00;1.20;;;11.90;80.20;;;;;;5048518;28;20630;-80
2021/05/14 06:34:53;;;;;;;2.30;1.40;;;11.80;78.90;;;;;;5048625;28;20643;-80
2021/05/14 06:37:20;;;;;;;1.07;0.80;;;11.80;79.80;;;;;;5044364;28;20635;-80
2021/05/14 06:39:47;;;;;;;1.20;1.10;;;12.00;78.60;;;;;;5048078;28;20622;-80
2021/05/14 06:42:14;;;;;;;1.37;1.00;;;12.10;78.50;;;;;;5045865;28;20696;-80
2021/05/14 06:44:40;;;;;;;0.70;0.70;;;12.20;78.70;;;;;;5049166;28;20630;-80
2021/05/14 06:47:07;;;;;;;0.73;0.53;;;12.20;77.10;;;;;;5048291;28;20718;-80
2021/05/14 06:49:34;;;;;;;0.87;0.70;;;12.40;76.20;;;;;;5046059;28;20702;-80
2021/05/14 06:52:01;;;;;;;1.40;0.80;;;12.50;76.00;;;;;;5048529;28;20737;-79
2021/05/14 06:54:27;;;;;;;1.00;0.90;;;12.70;76.60;;;;;;5048258;28;20216;-80
2021/05/14 06:56:54;;;;;;;0.77;0.77;;;12.60;75.20;;;;;;5049482;28;20619;-80
2021/05/14 06:59:20;;;;;;;1.80;1.00;;;12.70;75.90;;;;;;5049167;28;20622;-80
2021/05/14 07:01:47;;;;;;;0.60;0.60;;;12.70;73.80;;;;;;5045711;28;20626;-81
2021/05/14 07:04:15;;;;;;;0.67;0.67;;;12.70;75.40;;;;;;5047278;28;20642;-80
2021/05/14 07:06:42;;;;;;;0.70;0.70;;;12.80;75.40;;;;;;5049408;28;21006;-81
2021/05/14 07:09:08;;;;;;;0.67;0.67;;;13.00;75.30;;;;;;5049007;28;20673;-81
2021/05/14 07:11:35;;;;;;;0.80;0.80;;;13.10;73.90;;;;;;5048705;28;21296;-81
2021/05/14 07:14:01;;;;;;;1.20;0.83;;;13.50;73.90;;;;;;5049817;28;20672;-81
2021/05/14 07:16:28;;;;;;;0.70;0.70;;;13.50;73.00;;;;;;5049517;28;20607;-81
2021/05/14 07:18:55;;;;;;;1.55;0.73;;;13.60;71.90;;;;;;5049085;28;21305;-81
2021/05/14 07:21:21;;;;;;;1.70;0.60;;;13.60;72.30;;;;;;5049314;28;20666;-81
2021/05/14 07:23:49;;;;;;;0.80;0.70;;;13.50;72.90;;;;;;5048834;28;20626;-80
2021/05/14 07:26:16;;;;;;;1.60;0.60;;;13.70;71.60;;;;;;5049697;28;20607;-80
2021/05/14 07:28:43;;;;;;;0.87;0.50;;;13.70;69.10;;;;;;5042931;28;20720;-80
2021/05/14 07:31:09;;;;;;;0.67;0.50;;;13.90;69.40;;;;;;5048846;28;21254;-81
2021/05/14 07:33:40;;;;;;;0.60;0.40;;;14.10;68.20;;;;;;5049258;28;21183;-80
2021/05/14 07:36:09;;;;;;;4.50;0.60;;;14.00;67.70;;;;;;5049502;28;20643;-80
2021/05/14 07:38:36;;;;;;;1.50;0.60;;;14.30;66.80;;;;;;5047772;28;20744;-80
2021/05/14 07:41:03;;;;;;;1.43;0.80;;;14.40;66.50;;;;;;5050641;28;20199;-80
2021/05/14 07:43:33;;;;;;;1.37;0.60;;;14.60;66.50;;;;;;5052811;28;21522;-80
2021/05/14 07:45:59;;;;;;;1.80;0.57;;;14.70;64.80;;;;;;5052826;28;20655;-80
2021/05/14 07:48:26;;;;;;;0.60;0.50;;;14.80;63.90;;;;;;5052086;28;20641;-79
2021/05/14 07:50:53;;;;;;;0.70;0.70;;;14.50;64.70;;;;;;5048266;28;20696;-81
2021/05/14 07:53:20;;;;;;;0.80;0.70;;;14.30;64.50;;;;;;5052224;28;20621;-80
2021/05/14 07:55:47;;;;;;;0.70;0.70;;;14.10;67.10;;;;;;5053177;28;20647;-80
2021/05/14 07:58:14;;;;;;;0.97;0.87;;;14.20;67.80;;;;;;5049477;28;20621;-79
2021/05/14 08:00:41;;;;;;;0.70;0.70;;;14.20;67.40;;;;;;5050088;28;20764;-82
2021/05/14 08:03:07;;;;;;;1.37;1.00;;;14.10;66.00;;;;;;5052288;28;20194;-80
2021/05/14 08:05:34;;;;;;;0.70;0.70;;;13.90;64.60;;;;;;5052495;28;20694;-81
2021/05/14 08:08:01;;;;;;;0.80;0.63;;;14.00;65.50;;;;;;5052380;28;20626;-80
2021/05/14 08:10:28;;;;;;;0.70;0.60;;;14.10;64.20;;;;;;5052115;28;20715;-79
2021/05/14 08:12:54;;;;;;;1.20;0.60;;;14.60;63.10;;;;;;5052232;28;20626;-82
2021/05/14 08:15:21;;;;;;;0.50;0.40;;;14.70;62.60;;;;;;5051975;28;20635;-81
2021/05/14 08:17:50;;;;;;;1.17;0.70;;;14.60;62.20;;;;;;5051387;28;20626;-80
2021/05/14 08:20:17;;;;;;;1.33;0.63;;;14.80;61.70;;;;;;5051590;28;21381;-81
2021/05/14 08:22:43;;;;;;;0.50;0.50;;;15.10;61.20;;;;;;5051603;28;20632;-82
2021/05/14 08:25:11;;;;;;;1.27;0.83;;;15.30;61.30;;;;;;5051745;28;20631;-81
2021/05/14 08:27:38;;;;;;;0.73;0.53;;;15.20;61.60;;;;;;5050120;28;20729;-81
2021/05/14 08:30:06;;;;;;;1.40;1.30;;;15.10;61.30;;;;;;5050673;28;20688;-81
2021/05/14 08:32:34;;;;;;;0.83;0.70;;;15.50;62.80;;;;;;5050698;28;20627;-81
2021/05/14 08:35:00;;;;;;;0.73;0.70;;;15.70;62.10;;;;;;5051727;28;20641;-81
2021/05/14 08:37:26;;;;;;;0.53;0.53;;;16.20;59.70;;;;;;5051908;28;20622;-81
2021/05/14 08:39:53;;;;;;;0.70;0.50;;;16.30;58.40;;;;;;5044882;28;20666;-81
2021/05/14 08:42:19;;;;;;;1.57;0.60;;;16.50;58.60;;;;;;5051020;28;20645;-81
2021/05/14 08:44:46;;;;;;;8.63;1.23;;;16.60;57.40;;;;;;5043673;28;20704;-80
2021/05/14 08:47:13;;;;;;;2.60;2.13;;;16.10;57.80;;;;;;5048579;28;21191;-81
2021/05/14 08:49:40;;;;;;;0.50;0.50;;;15.70;58.70;;;;;;5049467;28;20654;-81
2021/05/14 08:52:10;;;;;;;0.67;0.60;;;15.90;59.10;;;;;;5050331;28;20974;-81
2021/05/14 08:54:42;;;;;;;0.63;0.63;;;15.70;59.50;;;;;;5050466;28;20689;-81
2021/05/14 08:57:08;;;;;;;0.40;0.40;;;15.60;58.80;;;;;;5050504;28;20618;-80
2021/05/14 08:59:34;;;;;;;0.60;0.60;;;15.80;58.20;;;;;;5049531;28;21281;-81
2021/05/14 09:02:01;;;;;;;0.60;0.53;;;16.10;58.40;;;;;;5051471;28;20627;-81
2021/05/14 09:04:32;;;;;;;0.50;0.50;;;16.40;57.60;;;;;;5051283;28;20634;-81
2021/05/14 09:07:00;;;;;;;1.27;0.70;;;16.40;56.60;;;;;;5051630;28;20676;-81
2021/05/14 09:09:27;;;;;;;0.60;0.60;;;16.30;57.00;;;;;;5050759;28;20626;-81
2021/05/14 09:11:53;;;;;;;0.90;0.50;;;16.40;57.20;;;;;;5051207;28;20633;-81
2021/05/14 09:14:38;;;;;;;0.87;0.50;;;16.90;56.70;;;;;;5050980;28;20633;-82
2021/05/14 09:17:09;;;;;;;0.60;0.60;;;16.60;55.60;;;;;;5051255;28;20618;-81
2021/05/14 09:19:37;;;;;;;1.43;1.30;;;16.00;57.00;;;;;;5050327;28;20682;-80
2021/05/14 09:22:16;;;;;;;1.73;0.90;;;16.10;59.20;;;;;;5051263;28;20618;-80
2021/05/14 09:24:45;;;;;;;0.93;0.93;;;16.10;59.10;;;;;;5050989;28;20621;-80
2021/05/14 09:27:27;;;;;;;1.03;0.67;;;16.00;59.80;;;;;;5049831;28;20603;-81
2021/05/14 09:29:54;;;;;;;1.00;0.90;;;16.00;60.30;;;;;;5050257;28;20694;-80
2021/05/14 09:32:22;;;;;;;0.67;0.67;;;16.00;62.60;;;;;;5051133;28;20633;-80
2021/05/14 09:34:50;;;;;;;1.47;0.60;;;15.90;63.60;;;;;;5050863;28;20669;-80
2021/05/14 09:37:18;;;;;;;0.77;0.60;;;15.60;63.90;;;;;;5050856;28;20676;-80
2021/05/14 09:39:46;;;;;;;2.50;0.73;;;15.90;64.70;;;;;;5050232;28;20607;-80
2021/05/14 09:42:13;;;;;;;1.03;0.57;;;15.80;62.90;;;;;;5050933;28;20614;-80
2021/05/14 09:44:39;;;;;;;1.13;0.70;;;15.70;63.40;;;;;;5050645;28;20633;-80
2021/05/14 09:47:06;;;;;;;1.40;1.10;;;15.70;63.50;;;;;;5050714;28;20629;-80
2021/05/14 09:49:33;;;;;;;0.53;0.53;;;15.60;61.40;;;;;;5049551;28;20611;-80
2021/05/14 09:52:04;;;;;;;0.70;0.70;;;15.80;62.00;;;;;;5050756;28;20672;-80
2021/05/14 09:54:33;;;;;;;1.70;0.70;;;15.70;59.70;;;;;;5050735;28;20606;-80
2021/05/14 10:00:04;;;;;;;0.60;0.50;;;16.30;60.50;;;;;;5043850;28;20711;-80
2021/05/14 10:02:33;;;;;;;0.70;0.57;;;15.70;58.90;;;;;;5050331;28;20613;-80
2021/05/14 10:05:01;;;;;;;0.60;0.60;;;15.80;61.10;;;;;;5049271;28;20630;-80
2021/05/14 10:07:29;;;;;;;0.57;0.57;;;16.10;60.10;;;;;;5050598;28;20618;-80
2021/05/14 10:09:58;;;;;;;0.80;0.60;;;16.40;60.20;;;;;;5049493;28;20650;-80
2021/05/14 10:12:25;;;;;;;1.37;0.60;;;16.50;60.10;;;;;;5050368;28;21212;-79
2021/05/14 10:14:52;;;;;;;1.33;0.70;;;16.70;59.50;;;;;;5050178;28;21078;-80
2021/05/14 10:17:19;;;;;;;1.23;0.67;;;16.80;60.00;;;;;;5050311;28;20951;-80
2021/05/14 10:19:48;;;;;;;0.63;0.60;;;17.00;59.80;;;;;;5049394;28;21187;-80
2021/05/14 10:22:14;;;;;;;0.60;0.60;;;17.30;59.00;;;;;;5049935;28;20672;-79
2021/05/14 10:24:42;;;;;;;0.60;0.60;;;17.30;58.60;;;;;;5049769;28;20680;-80
2021/05/14 10:27:20;;;;;;;1.40;1.30;;;17.30;58.70;;;;;;5047844;28;20607;-80
2021/05/14 10:29:48;;;;;;;1.53;1.43;;;17.30;58.50;;;;;;5049139;28;20981;-80
2021/05/14 10:32:16;;;;;;;2.40;1.50;;;17.20;58.40;;;;;;5049940;28;20621;-80
2021/05/14 10:34:42;;;;;;;1.77;1.23;;;17.00;58.30;;;;;;5049710;28;20618;-80
2021/05/14 10:37:11;;;;;;;1.90;1.47;;;16.70;58.90;;;;;;5049193;28;20622;-80
2021/05/14 10:39:41;;;;;;;5.80;1.13;;;16.80;60.20;;;;;;5047571;28;20630;-80
2021/05/14 10:42:09;;;;;;;0.73;0.70;;;16.90;61.60;;;;;;5050199;28;20645;-81
2021/05/14 10:44:55;;;;;;;0.80;0.67;;;17.00;60.60;;;;;;5050303;28;20634;-80
2021/05/14 10:47:51;;;;;;;0.73;0.73;;;16.90;61.00;;;;;;5050269;28;20675;-80
2021/05/14 10:50:41;;;;;;;2.00;1.07;;;17.30;60.40;;;;;;5050414;28;20681;-81
2021/05/14 10:53:29;;;;;;;1.97;0.67;;;17.80;59.90;;;;;;5050564;28;20650;-80
2021/05/14 10:56:31;;;;;;;3.57;1.00;;;18.30;59.40;;;;;;5050277;28;20718;-80
2021/05/14 10:59:12;;;;;;;2.00;0.83;;;18.60;58.30;;;;;;5047495;28;21194;-80
2021/05/14 11:01:45;;;;;;;0.53;0.53;;;18.50;58.00;;;;;;5050298;28;20716;-80
2021/05/14 11:04:41;;;;;;;1.70;0.80;;;18.30;58.70;;;;;;5050330;28;20689;-80
2021/05/14 11:07:27;;;;;;;0.70;0.60;;;17.50;58.70;;;;;;5050341;28;20622;-80
2021/05/14 11:10:27;;;;;;;1.10;1.00;;;17.50;60.80;;;;;;5049845;28;20649;-80
2021/05/14 11:12:54;;;;;;;0.60;0.60;;;17.00;63.80;;;;;;5049840;28;21179;-79
2021/05/14 11:15:38;;;;;;;1.20;0.80;;;17.70;65.30;;;;;;5051614;28;20618;-79
2021/05/14 11:18:25;;;;;;;0.60;0.40;;;18.50;62.70;;;;;;5054056;28;20628;-80
2021/05/14 11:20:54;;;;;;;0.50;0.50;;;19.00;58.50;;;;;;5053419;28;21185;-79
2021/05/14 11:23:34;;;;;;;0.73;0.57;;;19.00;57.90;;;;;;5053345;28;20620;-80
2021/05/14 11:26:01;;;;;;;1.37;0.90;;;18.90;57.90;;;;;;5053734;28;20617;-80
2021/05/14 11:28:42;;;;;;;0.60;0.50;;;18.70;58.40;;;;;;5053796;28;20623;-80
2021/05/14 11:31:14;;;;;;;1.23;0.50;;;18.80;57.70;;;;;;5054043;28;20685;-80
2021/05/14 11:33:44;;;;;;;0.40;0.40;;;18.90;56.70;;;;;;5052822;28;20619;-81
2021/05/14 11:36:11;;;;;;;1.00;0.53;;;19.10;55.10;;;;;;5053178;28;21236;-81
2021/05/14 11:38:43;;;;;;;0.70;0.50;;;19.40;55.40;;;;;;5053170;28;20654;-80
2021/05/14 11:41:14;;;;;;;0.87;0.53;;;19.90;53.60;;;;;;5053405;28;20623;-81
2021/05/14 11:43:51;;;;;;;0.70;0.60;;;21.10;54.00;;;;;;5053434;28;20617;-81
2021/05/14 11:46:17;;;;;;;1.07;0.70;;;22.80;52.30;;;;;;5047256;28;21037;-81
2021/05/14 11:48:45;;;;;;;0.60;0.50;;;24.60;48.60;;;;;;5051788;28;20674;-82
2021/05/14 11:51:14;;;;;;;0.70;0.50;;;25.90;47.90;;;;;;5050532;28;20662;-82
2021/05/14 11:53:40;;;;;;;0.87;0.40;;;27.00;46.20;;;;;;5052124;28;20649;-82
2021/05/14 11:56:07;;;;;;;1.23;0.60;;;25.20;44.10;;;;;;5052947;28;20622;-82
2021/05/14 11:58:34;;;;;;;0.87;0.60;;;25.30;45.50;;;;;;5048741;28;20622;-82
2021/05/14 12:01:03;;;;;;;0.93;0.43;;;25.60;43.90;;;;;;5049441;28;20709;-83
2021/05/14 12:03:29;;;;;;;0.60;0.60;;;27.90;42.00;;;;;;5052736;28;20626;-82
2021/05/14 12:06:05;;;;;;;0.40;0.30;;;30.50;38.70;;;;;;5052842;28;20614;-82
2021/05/14 12:08:31;;;;;;;0.90;0.53;;;29.10;40.10;;;;;;5052502;28;20614;-82
2021/05/14 12:11:00;;;;;;;1.33;0.50;;;30.60;35.50;;;;;;5052585;28;20665;-82
2021/05/14 12:13:29;;;;;;;0.50;0.43;;;33.20;34.90;;;;;;5052236;28;20623;-83
2021/05/14 12:16:00;;;;;;;1.50;0.80;;;35.90;32.20;;;;;;5052862;28;20967;-81
2021/05/14 12:18:27;;;;;;;1.00;0.40;;;34.60;30.60;;;;;;5052630;28;20650;-81
2021/05/14 12:20:56;;;;;;;0.73;0.40;;;31.00;32.40;;;;;;5051069;28;20621;-81
2021/05/14 12:23:25;;;;;;;0.57;0.47;;;30.40;34.20;;;;;;5052075;28;21906;-81
2021/05/14 12:25:53;;;;;;;0.50;0.43;;;31.80;31.90;;;;;;5051968;28;20958;-81
2021/05/14 12:28:37;;;;;;;0.53;0.30;;;34.00;31.70;;;;;;5051514;28;20671;-81
2021/05/14 12:31:05;;;;;;;1.37;0.57;;;36.90;29.60;;;;;;5037040;28;21448;-81
2021/05/14 12:33:32;;;;;;;0.93;0.60;;;37.60;28.10;;;;;;5052079;28;20625;-81
2021/05/14 12:36:00;;;;;;;0.60;0.40;;;38.40;26.80;;;;;;5052228;28;20629;-81
2021/05/14 12:38:41;;;;;;;0.60;0.40;;;40.10;27.10;;;;;;5051749;28;20614;-80
2021/05/14 12:41:27;;;;;;;1.33;0.57;;;39.00;26.20;;;;;;5049692;28;20670;-81
2021/05/14 12:44:09;;;;;;;1.33;0.70;;;34.20;28.10;;;;;;5051938;28;20630;-81
2021/05/14 12:46:35;;;;;;;0.70;0.40;;;30.00;31.00;;;;;;5051515;28;20622;-82
2021/05/14 12:49:09;;;;;;;1.23;0.50;;;30.80;33.40;;;;;;5051763;28;21191;-83
2021/05/14 12:51:36;;;;;;;0.60;0.40;;;32.30;30.60;;;;;;5051955;28;20664;-83
2021/05/14 12:54:04;;;;;;;0.53;0.47;;;32.00;29.30;;;;;;5051587;28;20626;-84
2021/05/14 12:56:30;;;;;;;2.10;0.70;;;33.40;28.50;;;;;;5051864;28;20614;-81
2021/05/14 12:58:58;;;;;;;0.63;0.50;;;30.10;29.50;;;;;;5051352;28;20728;-83
2021/05/14 13:01:26;;;;;;;0.70;0.50;;;29.90;33.60;;;;;;5051238;28;20746;-83